Time;durP1;ratioP1;P1;durP2;ratioP2;P2;SDS_P1;SDS_P2;PMS_P1;PMS_P2;Temp;Humidity;BMP_temperature;BMP_pressure;BME280_temperature;BME280_humidity;BME280_pressure;Samples;Min_cycle;Max_cycle;Signal;HPM_P1;HPM_P2
2022/04/10 00:01:19;;;;;;;9.90;4.50;;;;;;;5.79;56.70;100839.22;5016362;28;20042;-58
2022/04/10 00:03:51;;;;;;;10.35;4.78;;;;;;;6.01;55.51;100863.69;5016589;28;20061;-59
2022/04/10 00:06:21;;;;;;;7.60;4.00;;;;;;;6.14;54.27;100863.84;5015802;28;20363;-58
2022/04/10 00:08:52;;;;;;;7.57;4.18;;;;;;;6.20;54.04;100864.81;5016606;28;20134;-57
2022/04/10 00:11:23;;;;;;;13.02;5.00;;;;;;;6.16;54.50;100869.94;5016806;28;20053;-57
2022/04/10 00:13:55;;;;;;;12.38;4.30;;;;;;;6.02;52.98;100881.03;5016862;28;20374;-59
2022/04/10 00:16:26;;;;;;;8.63;4.38;;;;;;;6.04;51.51;100871.56;5014811;28;20080;-58
2022/04/10 00:19:01;;;;;;;5.22;3.50;;;;;;;6.02;51.35;100878.44;5016751;28;20046;-59
2022/04/10 00:21:32;;;;;;;7.35;3.65;;;;;;;5.94;50.44;100882.66;5016456;28;20053;-58
2022/04/10 00:24:03;;;;;;;9.55;3.58;;;;;;;5.90;51.35;100886.03;5014340;28;20188;-59
2022/04/10 00:26:34;;;;;;;9.63;3.97;;;;;;;6.02;52.50;100875.84;5016940;28;20096;-58
2022/04/10 00:29:06;;;;;;;7.22;5.03;;;;;;;6.19;52.02;100880.34;5014548;28;20113;-60
2022/04/10 00:31:37;;;;;;;8.43;4.90;;;;;;;6.16;51.46;100888.09;5016476;28;20056;-58
2022/04/10 00:34:08;;;;;;;12.30;5.30;;;;;;;6.10;51.19;100888.03;5015980;28;20105;-62
2022/04/10 00:36:39;;;;;;;10.63;4.40;;;;;;;6.12;51.65;100886.34;5016580;28;20080;-59
2022/04/10 00:39:10;;;;;;;11.93;6.03;;;;;;;6.14;50.59;100894.97;5016486;28;20288;-60
2022/04/10 00:41:40;;;;;;;9.18;4.30;;;;;;;6.16;50.10;100882.91;5016753;28;20403;-59
2022/04/10 00:44:13;;;;;;;7.72;3.22;;;;;;;6.17;49.42;100879.47;5011983;28;20101;-59
2022/04/10 00:46:44;;;;;;;11.32;3.50;;;;;;;6.34;49.48;100893.50;5015050;28;20057;-60
2022/04/10 00:49:15;;;;;;;3.97;3.25;;;;;;;6.22;47.08;100893.38;5015320;28;20092;-59
2022/04/10 00:51:47;;;;;;;6.45;3.10;;;;;;;6.18;49.09;100901.97;5010700;28;20280;-59
2022/04/10 00:54:20;;;;;;;3.92;3.10;;;;;;;6.23;46.17;100895.09;5010845;28;20084;-60
2022/04/10 00:56:51;;;;;;;7.35;3.80;;;;;;;6.27;45.67;100896.88;5010098;28;20058;-60
2022/04/10 00:59:23;;;;;;;7.55;4.40;;;;;;;6.34;46.67;100913.38;5018207;28;20058;-60
2022/04/10 01:01:54;;;;;;;10.20;5.20;;;;;;;6.43;47.56;100909.16;5020416;28;20104;-59
2022/04/10 01:04:40;;;;;;;5.32;3.05;;;;;;;6.47;47.42;100910.94;5019926;28;20062;-59
2022/04/10 01:07:13;;;;;;;6.00;3.20;;;;;;;6.35;47.58;100895.25;5019043;28;20050;-59
2022/04/10 01:09:44;;;;;;;5.82;2.95;;;;;;;6.20;47.78;100905.44;5023270;28;20049;-60
2022/04/10 01:12:14;;;;;;;5.28;3.55;;;;;;;6.29;47.20;100921.16;5025705;28;20050;-62
2022/04/10 01:14:47;;;;;;;5.15;3.00;;;;;;;6.34;48.14;100909.09;5025667;28;20096;-61
2022/04/10 01:17:18;;;;;;;8.07;3.90;;;;;;;6.38;48.96;100909.97;5025539;28;20049;-58
2022/04/10 01:19:50;;;;;;;6.75;3.70;;;;;;;6.32;48.33;100910.78;5025585;28;20053;-61
2022/04/10 01:22:31;;;;;;;7.10;3.38;;;;;;;6.35;49.20;100899.56;5025564;28;20507;-59
2022/04/10 01:25:04;;;;;;;7.78;3.97;;;;;;;6.37;48.78;100898.72;5024096;28;20461;-60
2022/04/10 01:27:38;;;;;;;6.22;4.05;;;;;;;6.36;48.65;100902.16;5024832;28;20210;-57
2022/04/10 01:30:10;;;;;;;7.03;3.58;;;;;;;6.43;48.89;100909.16;5024077;28;20042;-58
2022/04/10 01:32:41;;;;;;;5.25;3.50;;;;;;;6.56;47.74;100904.09;5026731;28;20050;-58
2022/04/10 01:35:12;;;;;;;4.70;3.25;;;;;;;6.51;46.69;100887.63;5026693;28;20092;-58
2022/04/10 01:37:46;;;;;;;6.15;3.30;;;;;;;6.69;48.05;100900.78;5026565;28;20661;-58
2022/04/10 01:40:16;;;;;;;6.97;4.10;;;;;;;6.79;47.50;100896.53;5026905;28;20251;-61
2022/04/10 01:42:47;;;;;;;5.75;3.38;;;;;;;6.78;45.87;100898.25;5026356;28;20062;-58
2022/04/10 01:45:17;;;;;;;5.25;3.63;;;;;;;6.78;45.93;100903.47;5026145;28;20080;-59
2022/04/10 01:47:52;;;;;;;7.20;3.60;;;;;;;6.90;44.58;100900.13;5026498;28;20109;-60
2022/04/10 01:50:23;;;;;;;4.85;3.40;;;;;;;6.86;44.18;100896.63;5025925;28;20045;-59
2022/04/10 01:52:55;;;;;;;7.53;4.32;;;;;;;6.97;45.15;100901.03;5026448;28;20112;-59
2022/04/10 01:55:26;;;;;;;7.00;3.97;;;;;;;7.26;45.58;100904.75;5023620;28;20100;-58
2022/04/10 01:57:56;;;;;;;6.07;3.50;;;;;;;7.29;44.86;100891.78;5024994;28;20430;-58
2022/04/10 02:00:27;;;;;;;5.72;3.90;;;;;;;7.21;44.32;100898.63;5024700;28;20114;-60
2022/04/10 02:02:58;;;;;;;8.27;3.53;;;;;;;7.18;43.63;100901.19;5025189;28;20053;-59
2022/04/10 02:05:28;;;;;;;5.45;3.58;;;;;;;7.26;44.29;100889.16;5025187;28;20152;-59
2022/04/10 02:08:01;;;;;;;7.50;3.65;;;;;;;7.46;43.63;100893.59;5024876;28;20058;-61
2022/04/10 02:10:31;;;;;;;9.80;5.28;;;;;;;7.69;43.19;100891.16;5024759;28;20060;-58
2022/04/10 02:13:02;;;;;;;6.25;3.50;;;;;;;7.80;42.82;100899.00;5025068;28;20061;-59
2022/04/10 02:15:33;;;;;;;11.15;4.28;;;;;;;7.98;43.93;100902.53;5024035;28;20054;-61
2022/04/10 02:18:03;;;;;;;11.95;6.53;;;;;;;8.36;44.46;100895.75;5024850;28;20057;-60
2022/04/10 02:20:34;;;;;;;17.05;6.82;;;;;;;8.44;44.84;100883.66;5025312;28;20120;-59
2022/04/10 02:23:07;;;;;;;16.92;10.38;;;;;;;8.78;45.14;100909.75;5024471;28;20382;-58
2022/04/10 02:25:37;;;;;;;11.02;6.90;;;;;;;8.89;44.14;100908.06;5024639;28;20132;-61
2022/04/10 02:28:08;;;;;;;6.90;5.35;;;;;;;8.98;42.75;100910.66;5025256;28;20124;-58
2022/04/10 02:30:39;;;;;;;14.77;6.72;;;;;;;9.06;42.69;100898.50;5025444;28;20105;-57
2022/04/10 02:33:10;;;;;;;9.90;6.63;;;;;;;9.26;42.19;100905.41;5023836;28;20065;-60
2022/04/10 02:35:41;;;;;;;18.23;10.25;;;;;;;9.43;43.62;100898.44;5025374;28;20064;-58
2022/04/10 02:38:16;;;;;;;14.80;7.93;;;;;;;9.37;44.82;100872.38;5025403;28;20049;-59
2022/04/10 02:40:46;;;;;;;15.90;8.43;;;;;;;9.61;44.70;100907.13;5025468;28;20053;-58
2022/04/10 02:43:17;;;;;;;16.25;8.60;;;;;;;9.64;46.20;100896.69;5025668;28;20105;-61
2022/04/10 02:45:48;;;;;;;13.50;8.60;;;;;;;9.59;46.65;100898.44;5023932;28;20041;-60
2022/04/10 02:48:18;;;;;;;13.02;7.68;;;;;;;9.52;46.97;100892.38;5024590;28;20061;-58
2022/04/10 02:50:49;;;;;;;15.52;7.93;;;;;;;9.27;47.41;100886.31;5025078;28;20124;-59
2022/04/10 02:53:22;;;;;;;21.52;9.50;;;;;;;9.19;49.63;100882.84;5025013;28;20593;-58
2022/04/10 02:55:54;;;;;;;21.90;9.65;;;;;;;9.21;50.31;100881.09;5023753;28;20081;-58
2022/04/10 02:58:24;;;;;;;22.40;9.88;;;;;;;9.16;50.24;100878.50;5024447;28;20584;-58
2022/04/10 03:00:55;;;;;;;27.20;9.75;;;;;;;9.06;51.70;100872.44;5025330;28;20053;-58
2022/04/10 03:03:27;;;;;;;16.73;9.63;;;;;;;9.10;52.02;100880.25;5024871;28;20053;-58
2022/04/10 03:05:57;;;;;;;18.30;9.68;;;;;;;8.97;51.98;100869.81;5024976;28;20155;-59
2022/04/10 03:08:30;;;;;;;20.25;9.93;;;;;;;8.95;52.55;100879.38;5023069;28;20060;-59
2022/04/10 03:11:00;;;;;;;13.90;9.18;;;;;;;8.84;52.48;100891.53;5024008;28;20057;-58
2022/04/10 03:13:31;;;;;;;22.67;10.70;;;;;;;8.77;52.41;100892.41;5024963;28;20085;-59
2022/04/10 03:16:02;;;;;;;17.02;8.65;;;;;;;8.75;52.80;100892.38;5023694;28;20056;-59
2022/04/10 03:18:33;;;;;;;16.35;8.68;;;;;;;8.40;53.26;100900.13;5023682;28;20118;-58
2022/04/10 03:21:04;;;;;;;18.73;8.80;;;;;;;8.21;53.44;100899.16;5024255;28;20124;-58
2022/04/10 03:23:36;;;;;;;16.00;8.90;;;;;;;8.36;53.67;100888.81;5024710;28;20264;-60
2022/04/10 03:26:07;;;;;;;14.35;8.30;;;;;;;8.31;54.02;100902.66;5024362;28;20061;-59
2022/04/10 03:28:37;;;;;;;12.75;8.95;;;;;;;8.28;53.83;100893.13;5024860;28;20439;-58
2022/04/10 03:31:08;;;;;;;15.10;8.43;;;;;;;8.18;53.43;100893.97;5024226;28;20068;-59
2022/04/10 03:33:39;;;;;;;20.02;8.90;;;;;;;8.00;53.59;100897.38;5024436;28;20084;-59
2022/04/10 03:36:10;;;;;;;20.30;9.00;;;;;;;7.93;53.69;100908.59;5024248;28;20038;-58
2022/04/10 03:38:42;;;;;;;18.55;9.18;;;;;;;7.78;54.45;100899.84;5024191;28;20136;-59
2022/04/10 03:41:13;;;;;;;18.15;8.48;;;;;;;7.74;54.02;100903.31;5024396;28;20081;-59
2022/04/10 03:43:43;;;;;;;13.48;7.47;;;;;;;7.83;53.94;100906.81;5024512;28;20121;-59
2022/04/10 03:46:14;;;;;;;15.50;10.75;;;;;;;7.92;53.74;100907.75;5024368;28;20056;-57
2022/04/10 03:48:46;;;;;;;12.88;8.43;;;;;;;7.99;53.02;100906.03;5024216;28;20506;-59
2022/04/10 03:51:17;;;;;;;12.77;8.68;;;;;;;7.99;53.41;100906.03;5024514;28;20050;-59
2022/04/10 03:53:49;;;;;;;15.52;8.30;;;;;;;8.21;53.13;100893.97;5024576;28;20049;-62
2022/04/10 03:56:20;;;;;;;12.68;8.35;;;;;;;8.58;53.03;100905.38;5022021;28;20049;-59
2022/04/10 03:58:51;;;;;;;14.02;7.70;;;;;;;8.82;51.34;100904.56;5023102;28;20088;-59
2022/04/10 04:01:22;;;;;;;12.25;7.95;;;;;;;8.83;51.27;100900.22;5022252;28;20054;-59
2022/04/10 04:03:54;;;;;;;19.60;8.10;;;;;;;8.83;50.66;100905.41;5023018;28;20076;-58
2022/04/10 04:06:25;;;;;;;14.35;7.90;;;;;;;8.83;50.93;100908.03;5023275;28;20151;-58
2022/04/10 04:08:58;;;;;;;17.08;10.70;;;;;;;9.00;51.17;100903.69;5023295;28;20053;-59
2022/04/10 04:11:28;;;;;;;17.45;8.35;;;;;;;9.16;50.83;100908.91;5022876;28;20049;-58
2022/04/10 04:13:59;;;;;;;16.30;9.02;;;;;;;9.16;50.82;100903.69;5021516;28;20112;-58
2022/04/10 04:16:30;;;;;;;15.45;8.60;;;;;;;9.15;50.97;100912.41;5023292;28;20101;-59
2022/04/10 04:19:01;;;;;;;17.58;12.23;;;;;;;9.06;50.75;100914.16;5023894;28;20053;-58
2022/04/10 04:21:31;;;;;;;16.35;9.43;;;;;;;9.15;50.89;100915.88;5024304;28;20053;-58
2022/04/10 04:24:04;;;;;;;12.70;8.73;;;;;;;9.27;51.08;100918.47;5023535;28;20121;-58
2022/04/10 04:26:35;;;;;;;13.90;9.13;;;;;;;9.35;50.82;100926.28;5023882;28;20050;-58
2022/04/10 04:29:07;;;;;;;13.02;9.43;;;;;;;9.29;51.16;100926.31;5026756;28;20339;-58
2022/04/10 04:31:38;;;;;;;15.80;8.95;;;;;;;9.13;51.81;100925.41;5027655;28;20109;-58
2022/04/10 04:34:11;;;;;;;16.23;7.93;;;;;;;9.07;51.70;100930.66;5027848;28;20092;-58
2022/04/10 04:36:42;;;;;;;16.65;9.10;;;;;;;8.92;51.75;100921.09;5027582;28;20061;-58
2022/04/10 04:39:14;;;;;;;14.52;8.35;;;;;;;8.85;51.60;100921.94;5027802;28;20067;-58
2022/04/10 04:41:49;;;;;;;15.57;9.20;;;;;;;8.73;51.72;100924.53;5028123;28;20068;-58
2022/04/10 04:44:19;;;;;;;15.18;9.55;;;;;;;8.70;52.54;100904.53;5027733;28;20820;-58
2022/04/10 04:46:50;;;;;;;19.05;9.98;;;;;;;8.70;52.79;100914.97;5028183;28;20053;-60
2022/04/10 04:49:21;;;;;;;16.58;9.25;;;;;;;8.77;52.36;100921.94;5027655;28;20094;-57
2022/04/10 04:51:51;;;;;;;16.67;9.07;;;;;;;8.63;51.76;100924.50;5027604;28;20050;-57
2022/04/10 04:54:24;;;;;;;15.23;8.55;;;;;;;8.59;52.17;100917.56;5027193;28;20065;-58
2022/04/10 04:56:54;;;;;;;15.55;9.20;;;;;;;8.56;52.93;100933.19;5027568;28;20217;-57
2022/04/10 04:59:25;;;;;;;17.67;9.32;;;;;;;8.40;53.40;100926.19;5027251;28;20064;-58
2022/04/10 05:01:56;;;;;;;16.98;9.10;;;;;;;8.38;54.32;100930.47;5027217;28;20109;-59
2022/04/10 05:04:26;;;;;;;17.15;9.55;;;;;;;8.77;53.70;100931.50;5027374;28;20054;-59
2022/04/10 05:06:57;;;;;;;20.60;10.18;;;;;;;9.11;53.37;100926.28;5027467;28;20081;-57
2022/04/10 05:09:29;;;;;;;15.00;10.07;;;;;;;9.15;53.22;100917.63;5027006;28;20053;-58
2022/04/10 05:12:00;;;;;;;18.10;9.73;;;;;;;9.07;53.26;100921.09;5027323;28;20041;-58
2022/04/10 05:14:31;;;;;;;16.02;9.70;;;;;;;8.98;53.47;100921.06;5026886;28;20388;-57
2022/04/10 05:17:01;;;;;;;14.80;8.80;;;;;;;8.56;53.32;100907.13;5027055;28;20067;-59
2022/04/10 05:19:32;;;;;;;17.75;9.57;;;;;;;8.42;54.43;100919.25;5026993;28;20061;-59
2022/04/10 05:22:03;;;;;;;13.75;8.32;;;;;;;8.33;54.17;100913.97;5027305;28;20239;-58
2022/04/10 05:24:35;;;;;;;14.70;9.02;;;;;;;8.26;54.57;100899.19;5026821;28;20069;-59
2022/04/10 05:27:06;;;;;;;17.30;9.15;;;;;;;8.38;54.57;100907.03;5026388;28;20103;-58
2022/04/10 05:29:37;;;;;;;15.50;9.02;;;;;;;8.32;54.84;100914.84;5027192;28;20346;-58
2022/04/10 05:32:08;;;;;;;19.40;11.48;;;;;;;8.37;55.33;100915.72;5026721;28;20120;-58
2022/04/10 05:34:39;;;;;;;17.95;9.73;;;;;;;8.27;55.35;100920.03;5026648;28;20384;-58
2022/04/10 05:37:10;;;;;;;18.00;10.63;;;;;;;7.92;55.78;100923.34;5026785;28;20304;-59
2022/04/10 05:39:42;;;;;;;15.77;9.52;;;;;;;7.84;55.91;100921.56;5025853;28;20071;-58
2022/04/10 05:42:13;;;;;;;15.90;9.50;;;;;;;7.92;56.55;100930.28;5026806;28;20357;-58
2022/04/10 05:44:44;;;;;;;16.38;10.30;;;;;;;8.03;56.38;100926.00;5027056;28;20123;-58
2022/04/10 05:47:14;;;;;;;18.08;10.45;;;;;;;7.99;56.35;100924.25;5026528;28;20105;-57
2022/04/10 05:49:45;;;;;;;14.10;9.25;;;;;;;8.09;56.79;100935.59;5026279;28;20049;-58
2022/04/10 05:52:16;;;;;;;17.88;10.43;;;;;;;7.86;56.66;100944.16;5026361;28;20120;-58
2022/04/10 05:54:48;;;;;;;17.77;10.20;;;;;;;7.58;57.64;100943.09;5026861;28;20053;-57
2022/04/10 05:57:19;;;;;;;30.85;16.73;;;;;;;7.27;58.20;100942.88;5026807;28;20061;-58
2022/04/10 05:59:49;;;;;;;21.50;12.57;;;;;;;7.15;58.77;100947.97;5026887;28;20121;-57
2022/04/10 06:02:20;;;;;;;29.42;15.63;;;;;;;7.23;58.82;100946.28;5026450;28;20042;-57
2022/04/10 06:04:51;;;;;;;23.40;13.65;;;;;;;7.34;58.79;100956.81;5026192;28;20328;-57
2022/04/10 06:07:26;;;;;;;18.88;11.07;;;;;;;7.49;58.53;100953.44;5026311;28;20053;-58
2022/04/10 06:09:58;;;;;;;18.88;10.35;;;;;;;7.69;58.00;100951.00;5026018;28;20125;-57
2022/04/10 06:12:29;;;;;;;18.33;10.07;;;;;;;7.77;57.73;100952.75;5025983;28;20108;-58
2022/04/10 06:15:00;;;;;;;21.50;11.45;;;;;;;7.91;57.50;100954.56;5026259;28;20037;-60
2022/04/10 06:17:31;;;;;;;29.30;9.40;;;;;;;7.89;56.76;100954.56;5025946;28;20099;-58
2022/04/10 06:20:02;;;;;;;17.00;9.77;;;;;;;7.44;57.35;100890.09;5025992;28;20057;-57
2022/04/10 06:22:33;;;;;;;21.92;10.82;;;;;;;7.85;57.54;100958.00;5025662;28;20057;-58
2022/04/10 06:25:06;;;;;;;23.92;10.65;;;;;;;7.72;57.65;100943.19;5025816;28;20069;-58
2022/04/10 06:27:37;;;;;;;19.25;10.00;;;;;;;7.71;57.50;100944.94;5025835;28;20049;-59
2022/04/10 06:30:08;;;;;;;21.27;10.63;;;;;;;7.43;58.02;100940.38;5025455;28;20326;-58
2022/04/10 06:32:39;;;;;;;31.98;15.00;;;;;;;7.17;58.60;100938.47;5025630;28;20288;-59
2022/04/10 06:35:10;;;;;;;23.90;12.15;;;;;;;6.79;59.87;100944.19;5025934;28;20054;-58
2022/04/10 06:37:42;;;;;;;33.63;14.73;;;;;;;6.62;60.55;100946.59;5025866;28;20615;-58
2022/04/10 06:40:15;;;;;;;23.30;12.98;;;;;;;6.44;61.10;100936.88;5025375;28;20099;-58
2022/04/10 06:42:46;;;;;;;26.60;11.70;;;;;;;6.50;61.42;100950.78;5025426;28;20151;-58
2022/04/10 06:45:16;;;;;;;18.25;9.60;;;;;;;6.78;60.74;100950.22;5025746;28;20060;-58
2022/04/10 06:47:47;;;;;;;27.25;10.40;;;;;;;6.96;60.34;100940.84;5025318;28;20053;-58
2022/04/10 06:50:18;;;;;;;22.55;10.10;;;;;;;7.11;59.88;100946.19;5024978;28;20052;-57
2022/04/10 06:52:52;;;;;;;19.92;10.82;;;;;;;7.24;60.15;100942.84;5025468;28;20046;-58
2022/04/10 06:55:25;;;;;;;22.88;10.75;;;;;;;7.35;59.27;100936.00;5025537;28;20073;-58
2022/04/10 06:57:56;;;;;;;27.60;12.77;;;;;;;7.30;59.27;100935.09;5025493;28;20073;-58
2022/04/10 07:00:27;;;;;;;26.95;11.45;;;;;;;7.23;59.54;100945.44;5025116;28;20787;-58
2022/04/10 07:02:57;;;;;;;21.40;9.73;;;;;;;7.09;59.64;100945.34;5025283;28;20057;-57
2022/04/10 07:05:28;;;;;;;21.92;10.75;;;;;;;7.00;60.11;100947.84;5025127;28;20113;-58
2022/04/10 07:07:59;;;;;;;19.20;10.70;;;;;;;6.79;60.44;100943.28;5025169;28;20042;-58
2022/04/10 07:10:31;;;;;;;18.35;9.60;;;;;;;6.64;60.93;100936.22;5025030;28;20084;-58
2022/04/10 07:13:01;;;;;;;23.27;9.82;;;;;;;6.63;61.28;100942.28;5025015;28;20060;-58
2022/04/10 07:15:33;;;;;;;18.98;10.05;;;;;;;6.67;61.17;100944.06;5025282;28;20074;-58
2022/04/10 07:18:05;;;;;;;20.02;11.45;;;;;;;6.57;60.89;100905.88;5025087;28;20361;-58
2022/04/10 07:20:36;;;;;;;17.30;10.20;;;;;;;6.55;60.84;100930.94;5024928;28;20060;-58
2022/04/10 07:25:55;;;;;;;17.98;9.73;;;;;;;6.28;61.89;100940.16;5024463;28;20402;-58
2022/04/10 07:28:26;;;;;;;24.45;11.85;;;;;;;6.24;62.27;100934.06;5024476;28;20046;-57
2022/04/10 07:30:57;;;;;;;25.88;10.70;;;;;;;6.22;62.19;100934.91;5024629;28;20068;-57
2022/04/10 07:33:28;;;;;;;16.80;10.20;;;;;;;6.20;62.44;100936.59;5024271;28;20054;-57
2022/04/10 07:35:59;;;;;;;22.70;9.88;;;;;;;6.14;62.45;100941.69;5024352;28;20413;-57
2022/04/10 07:38:30;;;;;;;24.98;10.25;;;;;;;6.08;62.87;100936.44;5024349;28;20201;-58
2022/04/10 07:41:02;;;;;;;15.52;9.35;;;;;;;6.02;63.20;100938.09;5024140;28;20144;-58
2022/04/10 07:43:33;;;;;;;18.90;9.68;;;;;;;5.94;63.42;100934.56;5024549;28;20061;-57
2022/04/10 07:48:51;;;;;;;36.60;13.02;;;;;;;5.51;64.45;100928.69;5024777;28;20100;-58
2022/04/10 07:51:22;;;;;;;56.40;20.73;;;;;;;5.32;65.04;100924.09;5024767;28;20426;-57
2022/04/10 07:53:54;;;;;;;39.92;18.33;;;;;;;5.29;65.37;100939.59;5024463;28;20061;-57
2022/04/10 07:56:26;;;;;;;24.95;11.98;;;;;;;5.16;65.74;100944.56;5024316;28;20060;-58
2022/04/10 07:58:57;;;;;;;33.00;13.82;;;;;;;5.23;66.29;100952.44;5023915;28;20331;-58
2022/04/10 08:01:27;;;;;;;42.33;21.60;;;;;;;5.30;65.83;100951.72;5024267;28;20120;-57
2022/04/10 08:03:58;;;;;;;39.80;21.38;;;;;;;5.25;65.79;100955.94;5024009;28;20251;-58
2022/04/10 08:06:29;;;;;;;26.70;12.82;;;;;;;5.21;66.08;100954.16;5023729;28;20108;-58
2022/04/10 08:08:59;;;;;;;18.60;10.75;;;;;;;5.10;66.25;100952.25;5024153;28;20080;-57
2022/04/10 08:11:32;;;;;;;26.90;10.88;;;;;;;4.84;66.66;100950.91;5023914;28;20053;-57
2022/04/10 08:14:03;;;;;;;19.65;12.15;;;;;;;4.69;67.14;100965.34;5023776;28;20246;-58
2022/04/10 08:16:33;;;;;;;26.58;14.35;;;;;;;4.41;67.60;100939.75;5023969;28;20120;-58
2022/04/10 08:19:04;;;;;;;22.30;10.95;;;;;;;4.38;68.34;100970.75;5024350;28;20092;-57
2022/04/10 08:21:35;;;;;;;21.20;11.07;;;;;;;4.22;68.75;100982.47;5024164;28;20045;-57
2022/04/10 08:24:08;;;;;;;21.85;11.57;;;;;;;4.09;69.16;100991.69;5023809;28;20049;-58
2022/04/10 08:26:40;;;;;;;26.88;10.40;;;;;;;3.96;69.62;100987.09;5023892;28;20109;-57
2022/04/10 08:29:11;;;;;;;20.95;9.52;;;;;;;3.93;70.05;100984.47;5024039;28;20061;-58
2022/04/10 08:31:42;;;;;;;19.90;10.23;;;;;;;3.91;70.60;100980.97;5024168;28;20491;-58
2022/04/10 08:34:13;;;;;;;19.15;9.90;;;;;;;3.80;70.84;100979.00;5023619;28;20060;-57
2022/04/10 08:36:43;;;;;;;20.23;9.75;;;;;;;3.92;70.62;100987.88;5023783;28;20426;-58
2022/04/10 08:39:14;;;;;;;20.38;9.95;;;;;;;3.83;70.93;100989.41;5023878;28;20359;-58
2022/04/10 08:41:48;;;;;;;23.35;10.35;;;;;;;3.96;70.76;100984.53;5023692;28;20053;-57
2022/04/10 08:44:19;;;;;;;20.10;10.15;;;;;;;4.04;70.75;100985.56;5023344;28;20080;-58
2022/04/10 08:46:51;;;;;;;19.23;10.45;;;;;;;3.86;70.69;100994.66;5023763;28;20057;-58
2022/04/10 08:49:23;;;;;;;22.48;10.30;;;;;;;3.78;71.50;101003.94;5023978;28;20056;-59
2022/04/10 08:51:55;;;;;;;33.28;14.20;;;;;;;3.99;70.55;101010.44;5023657;28;20042;-57
2022/04/10 08:54:27;;;;;;;31.60;15.15;;;;;;;3.30;70.78;100939.94;5023677;28;20092;-57
2022/04/10 08:57:01;;;;;;;32.88;14.82;;;;;;;3.64;71.29;101018.25;5023417;28;20120;-57
2022/04/10 08:59:32;;;;;;;34.40;16.52;;;;;;;3.56;71.46;101004.28;5021759;28;20109;-56
2022/04/10 09:02:03;;;;;;;42.97;18.40;;;;;;;3.55;71.16;101012.88;5023563;28;20045;-57
2022/04/10 09:04:33;;;;;;;31.83;14.80;;;;;;;3.46;71.45;101011.81;5022030;28;20234;-57
2022/04/10 09:07:07;;;;;;;26.83;13.77;;;;;;;3.30;71.99;101017.44;5023024;28;20061;-57
2022/04/10 09:09:38;;;;;;;18.73;11.00;;;;;;;2.98;72.75;101025.22;5023165;28;20117;-58
2022/04/10 09:12:11;;;;;;;21.38;11.30;;;;;;;2.74;73.10;100983.25;5023089;28;20054;-57
2022/04/10 09:14:43;;;;;;;24.88;12.13;;;;;;;3.07;72.88;101011.69;5023737;28;20045;-58
2022/04/10 09:17:16;;;;;;;19.15;10.90;;;;;;;3.06;73.07;101014.22;5026645;28;20041;-57
2022/04/10 09:19:48;;;;;;;24.38;11.07;;;;;;;3.11;73.15;101021.25;5026139;28;20082;-58
2022/04/10 09:22:35;;;;;;;21.52;10.40;;;;;;;3.06;73.34;101027.13;5025676;28;20092;-59
2022/04/10 09:25:13;;;;;;;25.83;12.30;;;;;;;2.95;73.49;101022.56;5026552;28;20108;-57
2022/04/10 09:27:46;;;;;;;23.98;11.23;;;;;;;2.92;73.70;101019.91;5026127;28;20109;-58
2022/04/10 09:30:18;;;;;;;23.25;11.80;;;;;;;2.70;73.98;100991.78;5026592;28;20053;-57
2022/04/10 09:32:51;;;;;;;21.73;11.70;;;;;;;2.75;74.44;101010.84;5026111;28;20116;-59
2022/04/10 09:35:23;;;;;;;23.30;12.52;;;;;;;2.45;74.34;100960.13;5026160;28;20046;-57
2022/04/10 09:37:54;;;;;;;32.38;12.35;;;;;;;2.67;74.20;101007.16;5026680;28;20080;-57
2022/04/10 09:40:30;;;;;;;28.75;13.60;;;;;;;2.57;74.61;101001.75;5026102;28;20379;-55
2022/04/10 09:43:05;;;;;;;25.17;12.75;;;;;;;2.41;74.93;101004.72;5025901;28;20120;-57
2022/04/10 09:45:38;;;;;;;49.15;21.65;;;;;;;2.28;75.35;101000.03;5026300;28;20225;-57
2022/04/10 09:48:27;;;;;;;53.28;23.75;;;;;;;2.33;76.24;101019.09;5026087;28;20114;-58
2022/04/10 09:51:01;;;;;;;31.08;14.80;;;;;;;2.46;75.90;101028.94;5025650;28;20062;-57
2022/04/10 09:53:32;;;;;;;27.23;13.93;;;;;;;1.76;76.10;100919.47;5026125;28;20073;-57
2022/04/10 09:56:04;;;;;;;27.75;13.70;;;;;;;2.32;76.29;101032.81;5025291;28;20050;-57
2022/04/10 09:58:37;;;;;;;35.25;13.80;;;;;;;2.23;76.71;101024.81;5025725;28;20109;-57
2022/04/10 10:01:12;;;;;;;25.88;13.23;;;;;;;2.12;76.85;101030.53;5025302;28;20037;-56
2022/04/10 10:03:44;;;;;;;25.73;13.82;;;;;;;2.00;77.47;101045.63;5025711;28;20347;-57
2022/04/10 10:06:15;;;;;;;32.05;16.20;;;;;;;2.01;78.09;101055.09;5025196;28;20120;-58
2022/04/10 10:08:46;;;;;;;37.05;17.05;;;;;;;1.62;78.22;100993.78;5024998;28;20077;-57
2022/04/10 10:11:19;;;;;;;38.25;17.27;;;;;;;2.07;78.14;101060.47;5026241;28;20061;-57
2022/04/10 10:13:53;;;;;;;38.15;17.83;;;;;;;2.13;78.17;101064.94;5026279;28;20100;-57
2022/04/10 10:16:24;;;;;;;33.10;16.50;;;;;;;2.11;78.27;101082.91;5026317;28;20768;-57
2022/04/10 10:18:57;;;;;;;31.05;16.40;;;;;;;2.14;78.00;101083.00;5022686;28;20054;-57
2022/04/10 10:21:33;;;;;;;35.97;15.75;;;;;;;2.06;78.06;101079.31;5023888;28;20061;-57
2022/04/10 10:24:05;;;;;;;28.65;14.85;;;;;;;2.06;78.11;101074.16;5024614;28;20061;-57
2022/04/10 10:26:51;;;;;;;36.58;16.70;;;;;;;1.96;77.87;101082.44;5024700;28;20053;-58
2022/04/10 10:29:48;;;;;;;33.33;18.00;;;;;;;1.84;78.34;101082.91;5022860;28;20153;-58
2022/04/10 10:32:29;;;;;;;29.45;16.10;;;;;;;1.65;78.29;101063.44;5023835;28;20300;-57
2022/04/10 10:35:00;;;;;;;37.95;17.45;;;;;;;1.71;78.47;101080.78;5023854;28;20060;-57
2022/04/10 10:37:31;;;;;;;29.40;14.75;;;;;;;1.69;79.14;101078.13;5024349;28;20057;-57
2022/04/10 10:40:02;;;;;;;29.38;14.90;;;;;;;1.62;79.05;101045.31;5023116;28;20061;-57
2022/04/10 10:42:43;;;;;;;26.90;15.52;;;;;;;1.83;78.90;101085.47;5023297;28;20807;-57
2022/04/10 10:45:33;;;;;;;28.73;14.05;;;;;;;1.60;78.56;101044.38;5023979;28;20287;-57
2022/04/10 10:48:39;;;;;;;26.33;13.63;;;;;;;1.87;78.70;101082.13;5022914;28;20061;-57
2022/04/10 10:51:41;;;;;;;27.20;13.82;;;;;;;2.03;78.38;101083.50;5023083;28;20053;-56
2022/04/10 10:54:15;;;;;;;29.20;12.98;;;;;;;1.86;78.01;101064.94;5022070;28;20333;-57
2022/04/10 10:56:47;;;;;;;28.08;12.88;;;;;;;2.02;77.90;101082.66;5024128;28;20054;-58
2022/04/10 10:59:32;;;;;;;24.88;13.48;;;;;;;1.84;78.22;101056.28;5025512;28;20128;-57
2022/04/10 11:02:10;;;;;;;25.63;13.10;;;;;;;2.00;78.03;101079.13;5023852;28;20053;-57
2022/04/10 11:04:58;;;;;;;25.58;13.68;;;;;;;2.09;77.63;101068.22;5023372;28;20132;-56
2022/04/10 11:07:29;;;;;;;29.25;14.05;;;;;;;2.10;77.61;101060.56;5023633;28;20212;-57
2022/04/10 11:10:01;;;;;;;28.48;15.00;;;;;;;2.06;77.39;101063.84;5025066;28;20097;-57
2022/04/10 11:12:33;;;;;;;30.25;15.02;;;;;;;2.06;78.01;101058.69;5024854;28;20060;-57
2022/04/10 11:15:18;;;;;;;31.48;14.98;;;;;;;2.09;77.64;101058.78;5023004;28;20060;-57
2022/04/10 11:17:51;;;;;;;37.38;15.95;;;;;;;2.03;77.75;101063.75;5023054;28;20137;-57
2022/04/10 11:20:23;;;;;;;37.22;16.75;;;;;;;1.87;78.43;101061.50;5023495;28;20442;-58
2022/04/10 11:23:00;;;;;;;29.73;15.82;;;;;;;1.98;78.40;101065.31;5023002;28;20120;-57
2022/04/10 11:25:39;;;;;;;46.17;17.95;;;;;;;2.03;78.29;101063.75;5022934;28;20411;-56
2022/04/10 11:28:10;;;;;;;34.35;18.33;;;;;;;2.07;78.09;101050.16;5022996;28;20041;-57
2022/04/10 11:30:43;;;;;;;34.70;16.77;;;;;;;1.87;78.09;101048.63;5023780;28;20064;-57
2022/04/10 11:33:17;;;;;;;34.03;15.57;;;;;;;1.99;78.50;101061.03;5023082;28;20140;-57
2022/04/10 11:35:57;;;;;;;30.95;16.33;;;;;;;1.89;78.51;101059.88;5024779;28;20076;-57
2022/04/10 11:38:28;;;;;;;34.63;16.05;;;;;;;1.65;78.26;101024.78;5023333;28;20053;-57
2022/04/10 11:40:59;;;;;;;27.15;14.55;;;;;;;1.93;78.78;101066.88;5024351;28;20271;-57
2022/04/10 11:43:32;;;;;;;41.15;17.42;;;;;;;2.02;78.23;101062.03;5023816;28;20340;-57
2022/04/10 11:46:04;;;;;;;33.88;15.82;;;;;;;1.44;78.50;100946.81;5024045;28;20225;-57
2022/04/10 11:48:38;;;;;;;33.60;16.50;;;;;;;2.19;78.12;101064.22;5024302;28;20073;-57
2022/04/10 11:51:10;;;;;;;32.17;16.35;;;;;;;2.23;77.70;101063.50;5024070;28;20085;-57